Time;durP1;ratioP1;P1;durP2;ratioP2;P2;SDS_P1;SDS_P2;PMS_P1;PMS_P2;Temp;Humidity;BMP_temperature;BMP_pressure;BME280_temperature;BME280_humidity;BME280_pressure;Samples;Min_cycle;Max_cycle;Signal;HPM_P1;HPM_P2
2022/01/27 00:01:34;;;;;;;29.65;18.10;;;;;;;-0.35;74.46;94722.20;1658794;85;21072;-48
2022/01/27 00:04:10;;;;;;;28.65;17.62;;;;;;;-0.31;74.53;94720.84;1657747;85;20969;-48
2022/01/27 00:06:33;;;;;;;30.77;21.87;;;;;;;-0.31;74.40;94722.98;1642833;85;21161;-52
2022/01/27 00:09:11;;;;;;;33.08;22.05;;;;;;;-0.33;74.30;94719.10;1660461;85;21084;-49
2022/01/27 00:11:29;;;;;;;35.45;23.12;;;;;;;-0.34;74.08;94722.95;1658526;85;21096;-49
2022/01/27 00:14:00;;;;;;;34.80;23.15;;;;;;;-0.35;74.10;94716.00;1636260;86;21022;-48
2022/01/27 00:16:28;;;;;;;38.45;23.77;;;;;;;-0.33;73.89;94714.48;1638618;85;21148;-48
2022/01/27 00:18:54;;;;;;;35.65;24.00;;;;;;;-0.30;73.75;94707.53;1659823;85;21164;-49
2022/01/27 00:21:27;;;;;;;37.38;23.80;;;;;;;-0.27;73.52;94713.52;1656198;85;21545;-49
2022/01/27 00:23:55;;;;;;;38.13;25.77;;;;;;;-0.26;73.28;94714.51;1655701;85;21073;-49
2022/01/27 00:26:21;;;;;;;42.05;27.15;;;;;;;-0.22;73.37;94709.13;1655557;85;21033;-49
2022/01/27 00:28:48;;;;;;;49.50;27.82;;;;;;;-0.08;73.19;94717.30;1659954;85;20981;-49
2022/01/27 00:31:17;;;;;;;52.30;29.95;;;;;;;0.00;72.88;94711.55;1658310;85;22065;-49
2022/01/27 00:33:45;;;;;;;39.63;25.30;;;;;;;0.08;72.86;94708.45;1656317;85;21425;-48
2022/01/27 00:36:12;;;;;;;38.70;23.30;;;;;;;0.16;72.27;94711.40;1644083;85;21538;-48
2022/01/27 00:38:39;;;;;;;36.60;23.20;;;;;;;0.18;71.55;94713.14;1659304;85;21009;-47
2022/01/27 00:41:06;;;;;;;38.10;24.12;;;;;;;0.15;71.10;94715.83;1640455;86;21112;-48
2022/01/27 00:43:33;;;;;;;34.95;24.60;;;;;;;0.07;71.10;94717.73;1651703;85;21161;-50
2022/01/27 00:46:00;;;;;;;38.55;25.43;;;;;;;0.01;71.09;94713.85;1657146;86;20973;-48
2022/01/27 00:48:27;;;;;;;35.40;23.38;;;;;;;-0.03;71.05;94716.34;1617023;86;21554;-48
2022/01/27 00:50:58;;;;;;;35.08;23.10;;;;;;;-0.04;71.13;94712.09;1637030;86;21006;-49
2022/01/27 00:53:39;;;;;;;43.80;24.50;;;;;;;-0.03;71.02;94712.88;1659884;85;21077;-48
2022/01/27 00:56:05;;;;;;;41.45;25.27;;;;;;;-0.05;70.91;94713.24;1658696;85;21162;-48
2022/01/27 00:58:51;;;;;;;44.13;27.35;;;;;;;-0.06;71.00;94709.59;1659927;85;21116;-48
2022/01/27 01:01:10;;;;;;;42.65;25.90;;;;;;;-0.05;70.99;94715.19;1639756;86;20985;-49
2022/01/27 01:03:40;;;;;;;39.27;24.65;;;;;;;-0.02;70.90;94714.62;1637422;85;21236;-49
2022/01/27 01:09:35;;;;;;;;;;;;;;;;;;;;;
2022/01/27 01:22:00;;;;;;;30.50;20.02;;;;;;;0.18;69.96;94710.44;1655523;85;21168;-48
2022/01/27 01:29:55;;;;;;;30.62;20.48;;;;;;;0.12;70.06;94713.88;1655691;85;21786;-47
2022/01/27 01:33:22;;;;;;;34.25;22.73;;;;;;;0.19;70.23;94715.28;1662356;85;20946;-49
2022/01/27 01:34:58;;;;;;;30.00;19.80;;;;;;;0.31;70.18;94712.98;1612037;85;21192;-49
2022/01/27 01:37:25;;;;;;;25.90;18.25;;;;;;;0.46;69.64;94709.73;1659991;85;21029;-47
2022/01/27 01:39:51;;;;;;;25.45;18.42;;;;;;;0.55;68.81;94710.15;1656476;85;21018;-49
2022/01/27 01:42:18;;;;;;;24.87;17.73;;;;;;;0.55;68.65;94708.20;1655003;85;21029;-49
2022/01/27 01:44:48;;;;;;;28.70;19.00;;;;;;;0.56;68.26;94714.41;1656251;85;21096;-49
2022/01/27 01:47:13;;;;;;;29.10;18.12;;;;;;;0.58;68.10;94713.44;1657316;85;21167;-49
2022/01/27 01:49:40;;;;;;;31.00;20.10;;;;;;;0.61;67.87;94712.66;1655427;86;21072;-49
2022/01/27 01:52:08;;;;;;;30.92;19.57;;;;;;;0.62;67.57;94711.50;1658224;85;21517;-48
2022/01/27 01:54:35;;;;;;;33.75;20.65;;;;;;;0.62;67.17;94711.50;1657839;85;21069;-49
2022/01/27 01:57:03;;;;;;;32.13;22.15;;;;;;;0.58;67.08;94722.31;1657518;85;21081;-49
2022/01/27 01:59:30;;;;;;;34.33;22.58;;;;;;;0.55;66.97;94711.50;1656239;85;21167;-48
2022/01/27 02:01:58;;;;;;;33.50;22.60;;;;;;;0.53;67.01;94709.73;1657044;85;21017;-49
2022/01/27 02:04:24;;;;;;;33.13;21.95;;;;;;;0.49;66.85;94708.39;1636659;85;20983;-49
2022/01/27 02:06:55;;;;;;;35.52;23.10;;;;;;;0.38;66.92;94706.83;1652830;85;20962;-48
2022/01/27 02:09:28;;;;;;;37.63;25.50;;;;;;;0.27;66.92;94706.80;1647199;85;20970;-48
2022/01/27 02:20:08;;;;;;;36.83;24.18;;;;;;;0.07;67.25;94698.80;1652234;85;21070;-48
2022/01/27 02:22:35;;;;;;;37.17;24.32;;;;;;;0.01;67.44;94700.34;1655487;85;21068;-49
2022/01/27 02:25:04;;;;;;;39.50;26.17;;;;;;;-0.01;67.62;94699.94;1655373;86;21152;-47
2022/01/27 02:27:31;;;;;;;37.05;22.98;;;;;;;0.06;67.87;94694.55;1658853;84;21517;-49
2022/01/27 02:29:58;;;;;;;38.83;25.48;;;;;;;0.20;67.79;94695.95;1639207;84;21080;-48
2022/01/27 02:32:24;;;;;;;35.63;22.22;;;;;;;0.31;67.50;94695.41;1636108;86;21018;-49
2022/01/27 02:34:51;;;;;;;38.58;24.43;;;;;;;0.35;66.96;94694.83;1660030;85;21429;-49
2022/01/27 02:37:18;;;;;;;41.68;26.57;;;;;;;0.32;66.87;94692.11;1658187;85;21178;-49
2022/01/27 02:39:45;;;;;;;41.68;25.20;;;;;;;0.32;66.98;94683.99;1635864;85;21490;-49
2022/01/27 02:42:35;;;;;;;41.33;26.90;;;;;;;0.34;66.86;94689.23;1636979;85;21030;-49
2022/01/27 02:45:16;;;;;;;36.50;23.42;;;;;;;0.28;66.76;94685.36;1658925;85;21072;-48
2022/01/27 02:47:42;;;;;;;42.50;27.35;;;;;;;0.22;66.64;94680.70;1656117;86;21077;-49
2022/01/27 02:50:11;;;;;;;41.10;25.88;;;;;;;0.22;66.73;94680.11;1663471;85;21473;-49
2022/01/27 02:52:38;;;;;;;40.85;25.30;;;;;;;0.26;66.74;94677.42;1608349;86;21149;-49
2022/01/27 02:55:07;;;;;;;43.45;27.07;;;;;;;0.26;66.50;94673.36;1657855;85;20994;-49
2022/01/27 02:57:33;;;;;;;40.75;24.23;;;;;;;0.21;66.92;94671.04;1657799;84;21129;-49
2022/01/27 03:00:00;;;;;;;40.10;24.40;;;;;;;0.23;66.68;94666.78;1661504;85;21163;-49
2022/01/27 03:02:26;;;;;;;35.52;23.25;;;;;;;0.21;66.53;94666.39;1632757;85;21119;-49
2022/01/27 03:04:53;;;;;;;43.13;27.17;;;;;;;0.17;66.69;94671.02;1637999;85;21592;-49
2022/01/27 03:07:20;;;;;;;39.78;24.60;;;;;;;0.22;66.85;94662.53;1655512;85;21053;-49
2022/01/27 03:09:46;;;;;;;57.70;33.00;;;;;;;0.35;66.66;94662.37;1656813;85;21049;-49
2022/01/27 03:12:13;;;;;;;69.00;40.35;;;;;;;0.39;66.34;94669.91;1656061;85;21005;-51
2022/01/27 03:14:41;;;;;;;68.45;37.23;;;;;;;0.44;66.43;94658.69;1660316;85;21128;-53
2022/01/27 03:17:09;;;;;;;46.18;27.22;;;;;;;0.52;65.99;94658.13;1660749;85;21077;-49
2022/01/27 03:19:37;;;;;;;37.88;25.75;;;;;;;0.51;65.86;94657.36;1658139;85;21222;-48
2022/01/27 03:22:04;;;;;;;37.23;23.85;;;;;;;0.48;65.63;94656.79;1644816;85;21232;-48
2022/01/27 03:24:32;;;;;;;45.80;26.52;;;;;;;0.47;65.68;94646.34;1659315;85;21682;-49
2022/01/27 03:26:59;;;;;;;49.58;27.85;;;;;;;0.45;65.58;94645.36;1637215;85;21218;-48
2022/01/27 03:29:26;;;;;;;36.05;24.12;;;;;;;0.49;65.63;94638.61;1650686;85;21018;-49
2022/01/27 03:31:54;;;;;;;35.45;23.35;;;;;;;0.49;65.51;94639.39;1669736;85;20989;-49
2022/01/27 03:34:21;;;;;;;56.30;30.95;;;;;;;0.49;65.50;94640.75;1657989;85;20993;-50
2022/01/27 03:36:49;;;;;;;37.30;25.95;;;;;;;0.54;65.43;94648.47;1659864;85;20970;-50
2022/01/27 03:39:18;;;;;;;33.55;22.35;;;;;;;0.52;65.56;94664.89;1659983;85;21146;-49
2022/01/27 03:41:50;;;;;;;32.08;21.10;;;;;;;0.51;65.51;94654.66;1658377;85;21049;-49
2022/01/27 03:44:14;;;;;;;33.67;21.37;;;;;;;0.49;65.55;94651.57;1658585;85;20971;-50
2022/01/27 03:46:41;;;;;;;32.10;21.85;;;;;;;0.43;65.36;94654.44;1658242;85;21482;-49
2022/01/27 03:49:08;;;;;;;32.70;21.62;;;;;;;0.34;65.57;94659.47;1663095;85;21300;-49
2022/01/27 03:51:34;;;;;;;32.58;21.62;;;;;;;0.33;65.61;94640.91;1660641;85;21801;-50
2022/01/27 03:54:01;;;;;;;44.25;27.35;;;;;;;0.34;65.52;94651.36;1654982;85;21191;-49
2022/01/27 03:56:28;;;;;;;46.30;28.47;;;;;;;0.33;65.64;94657.92;1657843;85;20981;-48
2022/01/27 03:58:54;;;;;;;41.60;27.45;;;;;;;0.34;66.16;94644.59;1659906;85;21025;-49
2022/01/27 04:01:21;;;;;;;38.65;25.05;;;;;;;0.46;66.35;94648.28;1659589;85;20965;-48
2022/01/27 04:03:48;;;;;;;38.73;23.70;;;;;;;0.54;66.02;94657.16;1644377;85;21158;-49
2022/01/27 04:06:20;;;;;;;33.55;20.50;;;;;;;0.52;65.98;94657.56;1655583;85;21009;-49
2022/01/27 04:08:43;;;;;;;38.45;23.65;;;;;;;0.47;66.17;94672.83;1659980;85;21009;-48
2022/01/27 04:11:10;;;;;;;37.63;23.65;;;;;;;0.46;66.36;94664.52;1658237;86;21069;-49
2022/01/27 04:13:37;;;;;;;28.17;19.40;;;;;;;0.58;66.45;94666.83;1660080;85;20997;-49
2022/01/27 04:16:05;;;;;;;34.60;23.45;;;;;;;0.71;65.85;94668.58;1659804;85;21141;-49
2022/01/27 04:18:32;;;;;;;38.95;24.87;;;;;;;0.71;65.65;94674.78;1656683;86;20950;-49
2022/01/27 04:20:59;;;;;;;43.45;26.52;;;;;;;0.72;65.52;94673.62;1659488;85;21117;-50
2022/01/27 04:23:25;;;;;;;50.90;32.75;;;;;;;0.69;65.57;94679.80;1640361;86;21430;-49
2022/01/27 04:25:52;;;;;;;35.88;24.15;;;;;;;0.70;65.78;94669.73;1661219;85;21033;-48
2022/01/27 04:28:27;;;;;;;42.93;24.95;;;;;;;0.83;65.40;94673.62;1656249;86;21120;-49
2022/01/27 04:30:47;;;;;;;38.58;24.72;;;;;;;0.89;65.16;94683.67;1655464;85;21096;-49
2022/01/27 04:33:14;;;;;;;44.70;25.43;;;;;;;0.92;64.79;94681.55;1657087;85;21092;-49
2022/01/27 04:35:47;;;;;;;40.45;23.95;;;;;;;0.95;64.60;94679.41;1658973;85;21037;-50
2022/01/27 04:43:28;;;;;;;39.80;23.92;;;;;;;0.87;64.36;94683.30;1659464;85;21736;-49
2022/01/27 04:46:16;;;;;;;40.25;25.77;;;;;;;0.79;64.40;94680.37;1637883;85;20973;-49
2022/01/27 04:48:40;;;;;;;42.30;26.75;;;;;;;0.72;64.48;94683.09;1636647;85;21052;-49
2022/01/27 04:51:06;;;;;;;40.75;26.60;;;;;;;0.66;64.47;94679.23;1637737;86;21113;-50
2022/01/27 04:53:34;;;;;;;44.40;27.85;;;;;;;0.58;64.68;94672.25;1659525;85;21936;-50
2022/01/27 04:55:59;;;;;;;50.63;32.45;;;;;;;0.50;64.64;94669.35;1641647;85;21076;-50
2022/01/27 04:58:32;;;;;;;43.35;28.00;;;;;;;0.45;64.84;94667.59;1660248;85;21109;-49
2022/01/27 05:00:56;;;;;;;55.10;36.63;;;;;;;0.46;64.97;94669.14;1659046;85;21096;-48
2022/01/27 05:03:35;;;;;;;55.48;34.88;;;;;;;0.39;65.12;94676.67;1656617;85;20990;-48
2022/01/27 05:05:53;;;;;;;68.28;39.75;;;;;;;0.38;65.18;94668.36;1654908;86;21191;-49
2022/01/27 05:08:20;;;;;;;70.30;39.40;;;;;;;0.38;65.02;94673.77;1663072;85;21112;-49
2022/01/27 05:13:18;;;;;;;71.30;43.35;;;;;;;0.36;64.84;94674.73;1619297;85;21001;-49
2022/01/27 05:15:45;;;;;;;72.40;43.25;;;;;;;0.34;64.87;94672.20;1654932;86;21562;-49
2022/01/27 05:18:12;;;;;;;51.42;33.50;;;;;;;0.32;64.78;94669.11;1637956;84;21944;-47
2022/01/27 05:20:39;;;;;;;45.43;29.95;;;;;;;0.29;64.69;94667.19;1661866;85;20962;-47
2022/01/27 05:23:06;;;;;;;47.80;30.62;;;;;;;0.18;64.79;94656.34;1661639;85;21537;-48
2022/01/27 05:25:34;;;;;;;54.05;31.93;;;;;;;0.19;64.78;94666.59;1658277;85;21022;-48
2022/01/27 05:28:01;;;;;;;59.63;37.98;;;;;;;0.17;64.92;94662.12;1665907;85;21452;-48
2022/01/27 05:30:28;;;;;;;70.40;39.92;;;;;;;0.22;65.18;94662.53;1657179;85;21736;-48
2022/01/27 05:32:55;;;;;;;67.55;38.98;;;;;;;0.33;64.87;94660.63;1661687;84;21014;-48
2022/01/27 05:35:21;;;;;;;67.67;37.75;;;;;;;0.35;64.70;94669.12;1658862;85;21077;-48
2022/01/27 05:37:47;;;;;;;66.55;37.48;;;;;;;0.35;64.74;94669.70;1656899;84;21453;-50
2022/01/27 05:40:14;;;;;;;65.12;37.35;;;;;;;0.41;64.91;94657.36;1657049;85;21048;-53
2022/01/27 05:42:41;;;;;;;74.15;43.98;;;;;;;0.52;64.92;94656.20;1660824;85;21132;-54
2022/01/27 05:45:09;;;;;;;74.03;41.92;;;;;;;0.63;64.71;94668.39;1656408;85;21026;-49
2022/01/27 05:47:36;;;;;;;84.30;46.92;;;;;;;0.69;64.48;94669.55;1637873;86;21516;-49
2022/01/27 05:50:04;;;;;;;80.17;44.93;;;;;;;0.73;64.46;94668.39;1645357;85;21087;-49
2022/01/27 05:52:31;;;;;;;78.12;43.63;;;;;;;0.84;64.31;94667.83;1665578;85;21666;-51
2022/01/27 05:54:58;;;;;;;87.42;52.62;;;;;;;0.91;63.99;94667.02;1656170;85;21112;-49
2022/01/27 05:57:25;;;;;;;96.47;52.35;;;;;;;0.94;64.18;94668.98;1664210;85;21030;-50
2022/01/27 05:59:51;;;;;;;83.55;46.08;;;;;;;1.00;64.26;94671.48;1657412;85;20966;-50
2022/01/27 06:02:18;;;;;;;78.83;46.68;;;;;;;1.06;64.24;94669.36;1656487;85;21559;-51
2022/01/27 06:04:45;;;;;;;93.22;52.78;;;;;;;1.10;64.04;94666.06;1657564;85;21065;-50
2022/01/27 06:07:12;;;;;;;102.12;57.88;;;;;;;1.11;63.91;94668.95;1658721;85;21962;-50
2022/01/27 06:09:39;;;;;;;106.10;62.60;;;;;;;1.12;63.83;94659.67;1657951;86;21216;-50
2022/01/27 06:12:07;;;;;;;94.72;55.03;;;;;;;1.07;63.85;94661.98;1619171;86;21033;-51
2022/01/27 06:14:34;;;;;;;91.70;53.28;;;;;;;1.03;64.21;94662.58;1643041;85;21669;-51
2022/01/27 06:17:01;;;;;;;75.90;45.05;;;;;;;1.10;64.07;94657.93;1639908;84;21124;-50
2022/01/27 06:19:28;;;;;;;86.50;48.65;;;;;;;1.16;64.06;94655.61;1658183;84;21156;-48
2022/01/27 06:21:56;;;;;;;100.92;53.87;;;;;;;1.17;64.03;94660.62;1656181;85;21105;-50
2022/01/27 06:24:23;;;;;;;104.70;55.95;;;;;;;1.16;63.91;94663.14;1655058;84;21128;-50
2022/01/27 06:26:49;;;;;;;109.15;58.13;;;;;;;1.13;64.28;94663.16;1660500;85;21006;-50
2022/01/27 06:29:16;;;;;;;99.42;56.37;;;;;;;1.19;64.33;94659.67;1663520;85;21400;-49
2022/01/27 06:31:46;;;;;;;135.03;69.75;;;;;;;1.24;64.10;94666.05;1644619;86;21036;-48
2022/01/27 06:34:13;;;;;;;109.22;65.17;;;;;;;1.26;64.06;94661.00;1634782;86;21523;-49
2022/01/27 06:36:39;;;;;;;228.50;109.37;;;;;;;1.27;63.91;94662.55;1629654;87;20983;-48
2022/01/27 06:39:07;;;;;;;151.25;79.80;;;;;;;1.28;63.86;94672.22;1617345;88;21058;-48
2022/01/27 06:41:34;;;;;;;123.10;68.80;;;;;;;1.33;63.97;94671.06;1628295;88;21046;-48
2022/01/27 06:44:02;;;;;;;92.72;52.50;;;;;;;1.38;63.75;94671.45;1620460;86;21140;-51
2022/01/27 06:46:29;;;;;;;121.87;65.28;;;;;;;1.41;63.97;94677.44;1642676;85;21452;-53
2022/01/27 06:48:55;;;;;;;110.65;62.48;;;;;;;1.44;63.75;94672.58;1610216;86;21168;-48
2022/01/27 06:51:23;;;;;;;121.85;63.13;;;;;;;1.48;63.71;94676.65;1602276;87;21569;-49
2022/01/27 06:53:52;;;;;;;133.32;78.42;;;;;;;1.46;63.53;94677.03;1581018;88;21032;-48
2022/01/27 06:56:18;;;;;;;145.82;79.70;;;;;;;1.49;63.70;94680.30;1613552;86;21284;-48
2022/01/27 06:58:45;;;;;;;159.15;87.42;;;;;;;1.59;63.58;94674.09;1634657;85;21065;-47
2022/01/27 07:01:11;;;;;;;174.27;88.25;;;;;;;1.67;63.41;94676.97;1631894;86;21108;-48
2022/01/27 07:03:38;;;;;;;182.62;93.50;;;;;;;1.62;63.16;94671.95;1637025;85;21226;-51
2022/01/27 07:06:05;;;;;;;141.22;77.00;;;;;;;1.56;63.16;94677.59;1626003;85;21470;-48
2022/01/27 07:08:32;;;;;;;147.02;78.80;;;;;;;1.52;63.31;94675.45;1600595;84;21121;-49
2022/01/27 07:10:59;;;;;;;145.68;77.97;;;;;;;1.49;63.46;94675.48;1646130;84;20988;-52
2022/01/27 07:13:26;;;;;;;140.03;76.50;;;;;;;1.52;63.60;94672.74;1572603;88;21037;-48
2022/01/27 07:15:54;;;;;;;124.25;68.60;;;;;;;1.54;63.82;94679.14;1577382;87;21063;-49
2022/01/27 07:18:21;;;;;;;124.95;72.37;;;;;;;1.60;63.84;94674.28;1597807;87;21069;-48
2022/01/27 07:20:48;;;;;;;121.60;68.67;;;;;;;1.70;63.60;94674.82;1607681;86;22575;-51
2022/01/27 07:23:14;;;;;;;124.12;71.17;;;;;;;1.71;63.71;94672.90;1634728;85;21064;-53
2022/01/27 07:25:41;;;;;;;128.78;70.80;;;;;;;1.73;63.77;94677.34;1636898;85;21459;-49
2022/01/27 07:28:08;;;;;;;128.72;72.60;;;;;;;1.75;63.90;94671.73;1630236;85;21074;-49
2022/01/27 07:30:35;;;;;;;122.95;65.03;;;;;;;1.75;63.91;94671.73;1639461;85;21010;-53
2022/01/27 07:33:03;;;;;;;144.45;73.42;;;;;;;1.79;63.67;94662.39;1641644;84;22277;-50
2022/01/27 07:35:31;;;;;;;117.62;64.72;;;;;;;1.75;63.62;94660.88;1656185;84;21086;-50
2022/01/27 07:37:58;;;;;;;95.07;55.25;;;;;;;1.69;63.75;94657.61;1628083;85;21088;-50
2022/01/27 07:40:25;;;;;;;99.55;58.63;;;;;;;1.66;63.95;94660.51;1654515;84;21036;-49
2022/01/27 07:42:52;;;;;;;129.35;73.40;;;;;;;1.67;63.82;94651.21;1619303;86;21029;-52
2022/01/27 07:45:18;;;;;;;157.20;82.90;;;;;;;1.70;63.61;94657.80;1634469;86;21933;-50
2022/01/27 07:47:45;;;;;;;135.18;76.22;;;;;;;1.73;63.45;94655.84;1653392;84;21611;-49
2022/01/27 07:50:12;;;;;;;118.35;68.75;;;;;;;1.81;63.07;94659.30;1630864;85;21080;-49
2022/01/27 07:52:41;;;;;;;115.15;65.42;;;;;;;1.88;62.96;94651.91;1659205;84;21055;-51
2022/01/27 07:55:10;;;;;;;159.07;92.42;;;;;;;1.98;62.44;94654.39;1648798;85;21048;-50
2022/01/27 07:57:37;;;;;;;158.82;93.55;;;;;;;1.97;62.58;94650.89;1616816;86;21890;-53
2022/01/27 08:00:06;;;;;;;135.50;73.40;;;;;;;2.03;62.71;94650.69;1625856;85;21383;-51
2022/01/27 08:02:37;;;;;;;123.18;68.00;;;;;;;2.19;62.62;94646.14;1644545;84;21029;-48
2022/01/27 08:05:05;;;;;;;119.75;66.50;;;;;;;2.35;62.41;94642.37;1617122;86;21088;-48
2022/01/27 08:07:33;;;;;;;183.27;95.00;;;;;;;2.51;62.54;94652.91;1640159;84;21013;-50
2022/01/27 08:10:00;;;;;;;123.22;73.72;;;;;;;2.71;62.10;94643.67;1598319;87;21145;-49
2022/01/27 08:12:27;;;;;;;93.30;54.53;;;;;;;2.94;62.05;94650.66;1613262;86;21141;-50
2022/01/27 08:14:53;;;;;;;121.75;74.97;;;;;;;3.25;61.30;94646.91;1562176;87;21117;-49
2022/01/27 08:17:20;;;;;;;126.78;75.80;;;;;;;3.52;60.49;94654.02;1607147;86;21033;-51
2022/01/27 08:19:47;;;;;;;155.43;86.45;;;;;;;3.69;59.70;94651.69;1584378;89;21128;-55
2022/01/27 08:22:14;;;;;;;156.20;85.60;;;;;;;3.75;59.38;94639.97;1586606;87;21173;-49
2022/01/27 08:24:41;;;;;;;111.25;67.95;;;;;;;3.82;58.97;94643.95;1622501;87;22265;-49
2022/01/27 08:27:12;;;;;;;119.05;70.87;;;;;;;3.95;58.26;94648.27;1590760;87;22051;-48
2022/01/27 08:29:42;;;;;;;128.40;70.25;;;;;;;4.12;57.82;94652.16;1566916;89;21098;-48
2022/01/27 08:32:10;;;;;;;134.03;74.25;;;;;;;4.20;57.03;94643.30;1607792;86;21095;-51
2022/01/27 08:34:37;;;;;;;129.78;69.58;;;;;;;4.13;57.17;94651.55;1635947;85;21187;-52
2022/01/27 08:37:10;;;;;;;137.10;80.38;;;;;;;4.11;57.02;94643.02;1625218;85;21302;-49
2022/01/27 08:39:37;;;;;;;108.40;66.42;;;;;;;4.03;57.05;94644.30;1636537;85;21097;-51
2022/01/27 08:42:05;;;;;;;104.20;65.80;;;;;;;4.14;56.96;94646.28;1648667;84;21504;-52
2022/01/27 08:44:31;;;;;;;113.77;67.95;;;;;;;4.24;56.90;94647.50;1642703;84;20997;-50
2022/01/27 08:46:58;;;;;;;105.32;63.83;;;;;;;4.38;56.83;94646.56;1658286;85;21798;-50
2022/01/27 08:49:28;;;;;;;105.25;65.95;;;;;;;4.45;56.59;94658.11;1643627;84;21149;-49
2022/01/27 08:51:58;;;;;;;61.20;40.48;;;;;;;4.46;56.57;94659.65;1648879;85;21033;-55
2022/01/27 08:54:25;;;;;;;67.25;44.67;;;;;;;4.43;56.63;94657.75;1652118;85;21124;-53
2022/01/27 08:56:53;;;;;;;49.38;33.75;;;;;;;4.38;56.70;94660.94;1652121;85;21062;-49
2022/01/27 08:59:19;;;;;;;42.98;27.02;;;;;;;4.33;56.91;94660.62;1639779;84;21133;-50
2022/01/27 09:01:50;;;;;;;45.85;30.70;;;;;;;4.21;56.95;94658.46;1647110;85;21059;-51
2022/01/27 09:04:18;;;;;;;47.60;31.70;;;;;;;4.08;57.34;94662.29;1624529;85;32916;-52
2022/01/27 09:06:44;;;;;;;40.05;27.90;;;;;;;3.90;57.67;94666.41;1641999;85;21054;-49
2022/01/27 09:09:11;;;;;;;42.00;29.70;;;;;;;3.75;58.15;94656.29;1644413;85;21039;-49
2022/01/27 09:11:39;;;;;;;39.70;27.35;;;;;;;3.76;58.49;94658.41;1644104;84;21162;-57
2022/01/27 09:14:08;;;;;;;36.85;24.67;;;;;;;3.90;58.29;94654.17;1634906;85;21490;-51
2022/01/27 09:16:35;;;;;;;43.15;29.07;;;;;;;3.97;57.96;94638.53;1633463;85;21465;-49
2022/01/27 09:19:04;;;;;;;39.78;26.82;;;;;;;3.94;57.65;94646.16;1612758;86;21097;-51
2022/01/27 09:21:48;;;;;;;39.98;27.67;;;;;;;3.92;57.79;94653.95;1641802;84;21094;-51
2022/01/27 09:24:18;;;;;;;36.05;24.02;;;;;;;3.90;57.57;94645.40;1643564;85;21180;-55
2022/01/27 09:29:20;;;;;;;33.48;23.52;;;;;;;3.68;57.93;94638.67;1651656;85;21060;-50
2022/01/27 09:31:49;;;;;;;32.05;22.40;;;;;;;3.68;58.14;94646.83;1627585;85;21174;-50
2022/01/27 09:34:16;;;;;;;30.20;22.05;;;;;;;3.65;57.84;94638.13;1640589;85;21221;-52
2022/01/27 09:36:43;;;;;;;31.00;20.02;;;;;;;3.58;58.09;94638.21;1626171;85;21334;-51
2022/01/27 09:39:11;;;;;;;26.30;18.87;;;;;;;3.62;58.07;94641.66;1641261;85;21027;-49
2022/01/27 09:41:39;;;;;;;27.10;19.55;;;;;;;3.67;58.16;94637.73;1642289;85;21906;-51
2022/01/27 09:44:10;;;;;;;22.87;18.60;;;;;;;3.67;57.90;94630.33;1656706;84;21617;-49
2022/01/27 09:46:39;;;;;;;24.32;17.57;;;;;;;3.64;57.72;94633.08;1622181;85;21304;-50
2022/01/27 09:49:12;;;;;;;19.75;14.80;;;;;;;3.64;57.88;94624.34;1646806;85;21190;-51
2022/01/27 09:51:40;;;;;;;22.05;16.75;;;;;;;3.63;57.75;94628.23;1614133;86;21156;-51
2022/01/27 09:54:06;;;;;;;21.12;15.83;;;;;;;3.50;57.69;94629.92;1625539;85;21125;-50
2022/01/27 09:56:34;;;;;;;21.52;15.83;;;;;;;3.36;58.28;94627.95;1634759;85;21144;-50
2022/01/27 09:59:04;;;;;;;26.00;17.90;;;;;;;3.28;58.59;94631.14;1642895;84;21133;-48
2022/01/27 10:01:31;;;;;;;28.23;20.30;;;;;;;3.19;59.13;94632.19;1635428;85;21184;-56
2022/01/27 10:04:06;;;;;;;25.48;17.20;;;;;;;3.22;59.45;94623.25;1637525;85;21058;-50
2022/01/27 10:06:35;;;;;;;18.90;14.58;;;;;;;3.24;59.51;94634.48;1626063;85;21139;-51
2022/01/27 10:09:19;;;;;;;23.70;17.32;;;;;;;3.13;59.71;94641.95;1630869;85;21599;-52
2022/01/27 10:11:48;;;;;;;23.30;15.38;;;;;;;2.98;60.20;94636.45;1629767;85;21057;-51
2022/01/27 10:14:36;;;;;;;27.40;18.48;;;;;;;3.00;60.46;94630.03;1626214;85;21641;-49
2022/01/27 10:17:13;;;;;;;42.85;28.85;;;;;;;3.04;60.74;94615.85;1611333;86;21080;-49
2022/01/27 10:19:40;;;;;;;35.20;22.50;;;;;;;3.02;60.89;94620.31;1637715;85;21312;-50
2022/01/27 10:22:15;;;;;;;32.05;22.62;;;;;;;2.99;60.94;94625.77;1643134;84;21572;-47
2022/01/27 10:24:42;;;;;;;30.52;20.70;;;;;;;2.90;61.16;94618.08;1635052;85;21125;-50
2022/01/27 10:27:30;;;;;;;27.32;19.77;;;;;;;2.86;61.26;94628.81;1598838;87;21122;-50
2022/01/27 10:32:44;;;;;;;29.45;19.32;;;;;;;2.68;61.57;94620.79;1583622;88;21188;-50
2022/01/27 10:35:14;;;;;;;30.60;19.10;;;;;;;2.63;61.69;94625.88;1579383;87;21073;-51
2022/01/27 10:38:07;;;;;;;31.23;21.37;;;;;;;2.62;62.01;94618.90;1610633;87;22102;-51
2022/01/27 10:40:42;;;;;;;33.70;20.97;;;;;;;2.61;62.08;94611.92;1595314;88;21207;-54
2022/01/27 10:43:14;;;;;;;;;;;;;;;2.65;61.95;94618.13;1660150;85;21659;-49
2022/01/27 10:46:14;;;;;;;40.70;22.62;;;;;;;2.67;61.76;94611.10;1651388;85;20213;-50
2022/01/27 10:48:53;;;;;;;38.17;23.45;;;;;;;2.68;61.95;94607.22;1635093;84;21061;-51
2022/01/27 10:51:26;;;;;;;28.67;20.15;;;;;;;2.68;61.98;94603.14;1598338;87;21126;-49
2022/01/27 10:54:02;;;;;;;36.60;21.90;;;;;;;2.71;61.89;94606.41;1598186;87;21187;-51
2022/01/27 10:56:32;;;;;;;31.68;21.68;;;;;;;2.77;62.07;94589.11;1566011;88;29211;-49
2022/01/27 10:59:01;;;;;;;40.52;27.75;;;;;;;2.84;61.71;94594.50;1599683;87;21031;-55
2022/01/27 11:01:40;;;;;;;33.05;24.85;;;;;;;2.86;61.74;94603.02;1614721;86;21037;-50
2022/01/27 11:04:10;;;;;;;30.60;21.75;;;;;;;2.89;61.90;94600.84;1594118;87;21084;-50
2022/01/27 11:06:41;;;;;;;33.92;23.20;;;;;;;2.91;61.91;94594.42;1594378;87;21642;-51
2022/01/27 11:09:08;;;;;;;24.27;17.20;;;;;;;2.90;62.00;94597.70;1583404;87;21747;-49
2022/01/27 11:11:39;;;;;;;23.90;18.25;;;;;;;2.89;62.33;94591.34;1594159;86;21132;-49
2022/01/27 11:14:06;;;;;;;27.17;19.95;;;;;;;2.82;62.83;94602.24;1569320;89;21242;-55
2022/01/27 11:16:41;;;;;;;26.77;19.37;;;;;;;2.75;63.52;94603.67;1596781;87;21125;-50
2022/01/27 11:21:43;;;;;;;27.77;19.62;;;;;;;2.62;64.59;94589.03;1639240;86;21029;-50
2022/01/27 11:24:18;;;;;;;31.57;20.45;;;;;;;2.60;64.84;94591.38;1605566;87;21029;-50
2022/01/27 11:26:45;;;;;;;30.88;20.95;;;;;;;2.63;65.04;94589.22;1577039;88;21090;-48
2022/01/27 11:29:13;;;;;;;34.35;20.10;;;;;;;2.71;64.68;94577.14;1588547;89;21630;-52
2022/01/27 11:32:30;;;;;;;28.47;20.27;;;;;;;2.76;64.28;94565.84;1586376;88;21862;-50
2022/01/27 11:34:57;;;;;;;29.12;19.20;;;;;;;2.75;64.23;94567.01;1636376;84;21148;-49
2022/01/27 11:37:39;;;;;;;23.98;17.35;;;;;;;2.73;64.32;94561.21;1603920;85;21107;-49
2022/01/27 11:40:09;;;;;;;22.13;15.83;;;;;;;2.67;64.21;94554.08;1632652;86;21084;-52
2022/01/27 11:42:43;;;;;;;25.15;18.05;;;;;;;2.67;64.41;94558.15;1630154;86;21209;-49
2022/01/27 11:45:27;;;;;;;36.23;21.62;;;;;;;2.74;64.41;94558.68;1633651;85;21158;-53
2022/01/27 11:48:09;;;;;;;27.95;19.40;;;;;;;2.83;64.04;94560.36;1640603;85;21124;-50
2022/01/27 11:50:51;;;;;;;40.23;25.02;;;;;;;2.88;63.87;94553.13;1640320;86;21067;-51
2022/01/27 11:53:35;;;;;;;27.90;19.32;;;;;;;2.88;63.81;94542.26;1639033;86;21182;-50
2022/01/27 11:56:15;;;;;;;29.37;19.00;;;;;;;2.83;63.84;94550.85;1632136;85;21126;-50
2022/01/27 11:58:52;;;;;;;37.03;20.48;;;;;;;2.83;64.00;94552.20;1644723;85;21179;-52
2022/01/27 12:01:26;;;;;;;30.65;21.15;;;;;;;2.86;64.05;94547.33;1607967;85;21117;-49
2022/01/27 12:04:08;;;;;;;35.30;20.90;;;;;;;3.00;63.80;94544.45;1631830;86;21149;-49
2022/01/27 12:06:56;;;;;;;34.25;22.87;;;;;;;3.16;63.62;94541.95;1621846;85;21199;-47
2022/01/27 12:09:28;;;;;;;28.02;19.25;;;;;;;3.27;63.26;94539.91;1634706;84;21059;-50
2022/01/27 12:12:02;;;;;;;27.70;19.00;;;;;;;3.43;62.66;94539.50;1628614;85;21158;-50
2022/01/27 12:14:41;;;;;;;27.67;19.48;;;;;;;3.41;62.58;94538.39;1615795;85;21041;-52
2022/01/27 12:17:15;;;;;;;31.97;20.05;;;;;;;3.34;62.70;94538.45;1612136;86;21124;-52